Terminal Aerodrome Forecast
Issued by NWS Flagstaff, AZ

Home | Current Version | Previous Version | Text Only | Print | Product List | Glossary On
Versions: 1 2 3 4 5 6 7 8 9 10 11 12 13 14 15 16 17 18 19 20 21 22 23 24 25 26 27 28
277
FTUS45 KFGZ 012320
TAFINW
TAF
KINW 012320Z 0200/0224 28011KT P6SM VCSH SCT025 BKN035
      TEMPO 0200/0201 -SHRA BKN025
     FM020400 VRB04KT P6SM VCFG SCT035 BKN050
     FM021800 VRB04KT P6SM BKN050=

USA.gov is the U.S. government's official web portal to all federal, state and local government web resources and services.